<?xml version="1.0" encoding="UTF-8" standalone="no" ?>
<gpx xmlns="http://www.topografix.com/GPX/1/1" xmlns:xsi="http://www.w3.org/2001/XMLSchema-instance" xsi:schemaLocation="http://www.topografix.com/GPX/1/1 http://www.topografix.com/GPX/1/1/gpx.xsd" version="1.1" creator="VisuGPX - https://www.visugpx.com">
  <metadata>
    <name>Plouharnel_carnac_17-23km</name>
    <desc><![CDATA[gnerando idor:8156854_10164584]]></desc>
  </metadata>
  <trk>
    <name><![CDATA[Plouharnel_Carnac_23km-10164584]]></name>
    <extensions>
      <line xmlns="http://www.topografix.com/GPX/gpx_style/0/2">
        <color>00FF00</color>
        <width>4</width>
      </line>
    </extensions>
    <trkseg>
      <trkpt lat="47.60393" lon="-3.11901">
        <ele>21</ele>
        <time>2023-11-11T06:11:32Z</time>
      </trkpt>
      <trkpt lat="47.60014" lon="-3.12558">
        <ele>10</ele>
        <time>2023-11-11T06:24:30Z</time>
      </trkpt>
      <trkpt lat="47.59921" lon="-3.12608">
        <ele>7</ele>
        <time>2023-11-11T06:26:42Z</time>
      </trkpt>
      <trkpt lat="47.59906" lon="-3.12421">
        <ele>9</ele>
        <time>2023-11-11T06:29:31Z</time>
      </trkpt>
      <trkpt lat="47.59804" lon="-3.12341">
        <ele>9</ele>
        <time>2023-11-11T06:32:05Z</time>
      </trkpt>
      <trkpt lat="47.5978" lon="-3.12428">
        <ele>3</ele>
        <time>2023-11-11T06:33:30Z</time>
      </trkpt>
      <trkpt lat="47.59551" lon="-3.12211">
        <ele>1</ele>
        <time>2023-11-11T06:39:33Z</time>
      </trkpt>
      <trkpt lat="47.596" lon="-3.12074">
        <ele>4</ele>
        <time>2023-11-11T06:41:52Z</time>
      </trkpt>
      <trkpt lat="47.59528" lon="-3.12107">
        <ele>3</ele>
        <time>2023-11-11T06:43:33Z</time>
      </trkpt>
      <trkpt lat="47.59381" lon="-3.1211">
        <ele>2</ele>
        <time>2023-11-11T06:46:49Z</time>
      </trkpt>
      <trkpt lat="47.59321" lon="-3.12034">
        <ele>3</ele>
        <time>2023-11-11T06:48:34Z</time>
      </trkpt>
      <trkpt lat="47.59364" lon="-3.11929">
        <ele>3</ele>
        <time>2023-11-11T06:50:25Z</time>
      </trkpt>
      <trkpt lat="47.59331" lon="-3.11829">
        <ele>2</ele>
        <time>2023-11-11T06:52:05Z</time>
      </trkpt>
      <trkpt lat="47.59258" lon="-3.11971">
        <ele>1</ele>
        <time>2023-11-11T06:54:46Z</time>
      </trkpt>
      <trkpt lat="47.59119" lon="-3.11953">
        <ele>2</ele>
        <time>2023-11-11T06:57:52Z</time>
      </trkpt>
      <trkpt lat="47.59119" lon="-3.11783">
        <ele>3</ele>
        <time>2023-11-11T07:00:25Z</time>
      </trkpt>
      <trkpt lat="47.59046" lon="-3.11574">
        <ele>4</ele>
        <time>2023-11-11T07:03:57Z</time>
      </trkpt>
      <trkpt lat="47.59036" lon="-3.11393">
        <ele>6</ele>
        <time>2023-11-11T07:06:40Z</time>
      </trkpt>
      <trkpt lat="47.58888" lon="-3.11375">
        <ele>2</ele>
        <time>2023-11-11T07:09:58Z</time>
      </trkpt>
      <trkpt lat="47.58822" lon="-3.11184">
        <ele>6</ele>
        <time>2023-11-11T07:13:12Z</time>
      </trkpt>
      <trkpt lat="47.58832" lon="-3.11116">
        <ele>8</ele>
        <time>2023-11-11T07:14:14Z</time>
      </trkpt>
      <trkpt lat="47.58776" lon="-3.11054">
        <ele>5</ele>
        <time>2023-11-11T07:15:47Z</time>
      </trkpt>
      <trkpt lat="47.58803" lon="-3.10917">
        <ele>10</ele>
        <time>2023-11-11T07:17:56Z</time>
      </trkpt>
      <trkpt lat="47.58866" lon="-3.10867">
        <ele>11</ele>
        <time>2023-11-11T07:19:31Z</time>
      </trkpt>
      <trkpt lat="47.58856" lon="-3.10776">
        <ele>12</ele>
        <time>2023-11-11T07:20:54Z</time>
      </trkpt>
      <trkpt lat="47.58783" lon="-3.10737">
        <ele>12</ele>
        <time>2023-11-11T07:22:38Z</time>
      </trkpt>
      <trkpt lat="47.58684" lon="-3.10784">
        <ele>8</ele>
        <time>2023-11-11T07:24:56Z</time>
      </trkpt>
      <trkpt lat="47.58591" lon="-3.11004">
        <ele>1</ele>
        <time>2023-11-11T07:28:50Z</time>
      </trkpt>
      <trkpt lat="47.58503" lon="-3.10852">
        <ele>3.8</ele>
        <time>2023-11-11T07:31:50Z</time>
      </trkpt>
      <trkpt lat="47.58503" lon="-3.10567">
        <ele>1</ele>
        <time>2023-11-11T07:36:07Z</time>
      </trkpt>
      <trkpt lat="47.58513" lon="-3.10415">
        <ele>2</ele>
        <time>2023-11-11T07:38:24Z</time>
      </trkpt>
      <trkpt lat="47.5844" lon="-3.10314">
        <ele>3</ele>
        <time>2023-11-11T07:40:38Z</time>
      </trkpt>
      <trkpt lat="47.58209" lon="-3.10253">
        <ele>3</ele>
        <time>2023-11-11T07:45:51Z</time>
      </trkpt>
      <trkpt lat="47.58114" lon="-3.10347">
        <ele>1</ele>
        <time>2023-11-11T07:48:23Z</time>
      </trkpt>
      <trkpt lat="47.58004" lon="-3.10188">
        <ele>2</ele>
        <time>2023-11-11T07:51:48Z</time>
      </trkpt>
      <trkpt lat="47.58065" lon="-3.0995">
        <ele>5</ele>
        <time>2023-11-11T07:55:37Z</time>
      </trkpt>
      <trkpt lat="47.58368" lon="-3.09323">
        <ele>15</ele>
        <time>2023-11-11T08:07:12Z</time>
      </trkpt>
      <trkpt lat="47.58303" lon="-3.09165">
        <ele>16</ele>
        <time>2023-11-11T08:09:58Z</time>
      </trkpt>
      <trkpt lat="47.58176" lon="-3.09098">
        <ele>10</ele>
        <time>2023-11-11T08:12:58Z</time>
      </trkpt>
      <trkpt lat="47.57775" lon="-3.08958">
        <ele>9</ele>
        <time>2023-11-11T08:22:08Z</time>
      </trkpt>
      <trkpt lat="47.57623" lon="-3.08952">
        <ele>7</ele>
        <time>2023-11-11T08:25:31Z</time>
      </trkpt>
      <trkpt lat="47.57365" lon="-3.09171">
        <ele>4</ele>
        <time>2023-11-11T08:32:08Z</time>
      </trkpt>
      <trkpt lat="47.57292" lon="-3.09596">
        <ele>12</ele>
        <time>2023-11-11T08:38:42Z</time>
      </trkpt>
      <trkpt lat="47.57578" lon="-3.09845">
        <ele>7</ele>
        <time>2023-11-11T08:46:05Z</time>
      </trkpt>
      <trkpt lat="47.57636" lon="-3.10579">
        <ele>3</ele>
        <time>2023-11-11T08:57:10Z</time>
      </trkpt>
      <trkpt lat="47.57394" lon="-3.10615">
        <ele>2</ele>
        <time>2023-11-11T09:02:35Z</time>
      </trkpt>
      <trkpt lat="47.57267" lon="-3.10367">
        <ele>3</ele>
        <time>2023-11-11T09:07:15Z</time>
      </trkpt>
      <trkpt lat="47.57013" lon="-3.10118">
        <ele>3</ele>
        <time>2023-11-11T09:14:02Z</time>
      </trkpt>
      <trkpt lat="47.56948" lon="-3.09772">
        <ele>6</ele>
        <time>2023-11-11T09:19:25Z</time>
      </trkpt>
      <trkpt lat="47.56763" lon="-3.09644">
        <ele>5</ele>
        <time>2023-11-11T09:23:57Z</time>
      </trkpt>
      <trkpt lat="47.56612" lon="-3.09681">
        <ele>5</ele>
        <time>2023-11-11T09:27:22Z</time>
      </trkpt>
      <trkpt lat="47.56534" lon="-3.0976">
        <ele>3</ele>
        <time>2023-11-11T09:29:28Z</time>
      </trkpt>
      <trkpt lat="47.56448" lon="-3.09711">
        <ele>4</ele>
        <time>2023-11-11T09:31:31Z</time>
      </trkpt>
      <trkpt lat="47.56362" lon="-3.0959">
        <ele>3</ele>
        <time>2023-11-11T09:34:09Z</time>
      </trkpt>
      <trkpt lat="47.56522" lon="-3.09474">
        <ele>7</ele>
        <time>2023-11-11T09:38:07Z</time>
      </trkpt>
      <trkpt lat="47.56538" lon="-3.09062">
        <ele>5</ele>
        <time>2023-11-11T09:44:18Z</time>
      </trkpt>
      <trkpt lat="47.56493" lon="-3.08934">
        <ele>4</ele>
        <time>2023-11-11T09:46:28Z</time>
      </trkpt>
      <trkpt lat="47.56714" lon="-3.08509">
        <ele>7</ele>
        <time>2023-11-11T09:54:31Z</time>
      </trkpt>
      <trkpt lat="47.56772" lon="-3.08012">
        <ele>4</ele>
        <time>2023-11-11T10:02:05Z</time>
      </trkpt>
      <trkpt lat="47.56903" lon="-3.08018">
        <ele>7</ele>
        <time>2023-11-11T10:05:00Z</time>
      </trkpt>
      <trkpt lat="47.57001" lon="-3.07836">
        <ele>4</ele>
        <time>2023-11-11T10:08:30Z</time>
      </trkpt>
      <trkpt lat="47.57138" lon="-3.07489">
        <ele>7</ele>
        <time>2023-11-11T10:14:32Z</time>
      </trkpt>
      <trkpt lat="47.57259" lon="-3.06713">
        <ele>7</ele>
        <time>2023-11-11T10:26:29Z</time>
      </trkpt>
      <trkpt lat="47.57281" lon="-3.06067">
        <ele>5</ele>
        <time>2023-11-11T10:36:11Z</time>
      </trkpt>
      <trkpt lat="47.57211" lon="-3.05681">
        <ele>7</ele>
        <time>2023-11-11T10:42:11Z</time>
      </trkpt>
      <trkpt lat="47.57561" lon="-3.0536">
        <ele>7</ele>
        <time>2023-11-11T10:51:20Z</time>
      </trkpt>
      <trkpt lat="47.57807" lon="-3.05284">
        <ele>7</ele>
        <time>2023-11-11T10:56:56Z</time>
      </trkpt>
      <trkpt lat="47.57829" lon="-3.05165">
        <ele>7</ele>
        <time>2023-11-11T10:58:47Z</time>
      </trkpt>
      <trkpt lat="47.57948" lon="-3.05053">
        <ele>7</ele>
        <time>2023-11-11T11:01:55Z</time>
      </trkpt>
      <trkpt lat="47.58036" lon="-3.0515">
        <ele>4</ele>
        <time>2023-11-11T11:04:21Z</time>
      </trkpt>
      <trkpt lat="47.58092" lon="-3.05042">
        <ele>4</ele>
        <time>2023-11-11T11:06:24Z</time>
      </trkpt>
      <trkpt lat="47.5816" lon="-3.04984">
        <ele>3</ele>
        <time>2023-11-11T11:08:09Z</time>
      </trkpt>
      <trkpt lat="47.58452" lon="-3.0519">
        <ele>3</ele>
        <time>2023-11-11T11:15:20Z</time>
      </trkpt>
      <trkpt lat="47.58382" lon="-3.0554">
        <ele>4</ele>
        <time>2023-11-11T11:20:49Z</time>
      </trkpt>
      <trkpt lat="47.58445" lon="-3.05623">
        <ele>5</ele>
        <time>2023-11-11T11:22:41Z</time>
      </trkpt>
      <trkpt lat="47.58533" lon="-3.05573">
        <ele>4</ele>
        <time>2023-11-11T11:24:47Z</time>
      </trkpt>
      <trkpt lat="47.58555" lon="-3.0576">
        <ele>8</ele>
        <time>2023-11-11T11:27:38Z</time>
      </trkpt>
      <trkpt lat="47.58552" lon="-3.05933">
        <ele>13</ele>
        <time>2023-11-11T11:30:14Z</time>
      </trkpt>
      <trkpt lat="47.58774" lon="-3.05955">
        <ele>10</ele>
        <time>2023-11-11T11:35:11Z</time>
      </trkpt>
      <trkpt lat="47.59114" lon="-3.05906">
        <ele>7</ele>
        <time>2023-11-11T11:42:46Z</time>
      </trkpt>
      <trkpt lat="47.59224" lon="-3.06095">
        <ele>7</ele>
        <time>2023-11-11T11:46:31Z</time>
      </trkpt>
      <trkpt lat="47.59207" lon="-3.06361">
        <ele>10</ele>
        <time>2023-11-11T11:50:32Z</time>
      </trkpt>
      <trkpt lat="47.59166" lon="-3.06524">
        <ele>15</ele>
        <time>2023-11-11T11:53:08Z</time>
      </trkpt>
      <trkpt lat="47.59566" lon="-3.06661">
        <ele>21</ele>
        <time>2023-11-11T12:02:16Z</time>
      </trkpt>
      <trkpt lat="47.59543" lon="-3.06764">
        <ele>20</ele>
        <time>2023-11-11T12:03:54Z</time>
      </trkpt>
      <trkpt lat="47.59618" lon="-3.06902">
        <ele>25</ele>
        <time>2023-11-11T12:06:33Z</time>
      </trkpt>
      <trkpt lat="47.59467" lon="-3.07468">
        <ele>18</ele>
        <time>2023-11-11T12:15:41Z</time>
      </trkpt>
      <trkpt lat="47.59276" lon="-3.08043">
        <ele>19</ele>
        <time>2023-11-11T12:25:18Z</time>
      </trkpt>
      <trkpt lat="47.60162" lon="-3.08378">
        <ele>19</ele>
        <time>2023-11-11T12:45:38Z</time>
      </trkpt>
      <trkpt lat="47.60122" lon="-3.08747">
        <ele>21</ele>
        <time>2023-11-11T12:51:14Z</time>
      </trkpt>
      <trkpt lat="47.59959" lon="-3.09451">
        <ele>25</ele>
        <time>2023-11-11T13:02:24Z</time>
      </trkpt>
      <trkpt lat="47.60029" lon="-3.09545">
        <ele>25</ele>
        <time>2023-11-11T13:04:30Z</time>
      </trkpt>
      <trkpt lat="47.59844" lon="-3.10034">
        <ele>21</ele>
        <time>2023-11-11T13:12:54Z</time>
      </trkpt>
      <trkpt lat="47.59911" lon="-3.09998">
        <ele>21</ele>
        <time>2023-11-11T13:14:30Z</time>
      </trkpt>
      <trkpt lat="47.60007" lon="-3.10056">
        <ele>21</ele>
        <time>2023-11-11T13:16:48Z</time>
      </trkpt>
      <trkpt lat="47.60012" lon="-3.1035">
        <ele>23</ele>
        <time>2023-11-11T13:21:13Z</time>
      </trkpt>
      <trkpt lat="47.60197" lon="-3.10324">
        <ele>26</ele>
        <time>2023-11-11T13:25:21Z</time>
      </trkpt>
      <trkpt lat="47.60116" lon="-3.10546">
        <ele>21</ele>
        <time>2023-11-11T13:29:08Z</time>
      </trkpt>
      <trkpt lat="47.6015" lon="-3.10657">
        <ele>20</ele>
        <time>2023-11-11T13:30:57Z</time>
      </trkpt>
      <trkpt lat="47.60191" lon="-3.10692">
        <ele>21</ele>
        <time>2023-11-11T13:32:00Z</time>
      </trkpt>
      <trkpt lat="47.60233" lon="-3.10864">
        <ele>20</ele>
        <time>2023-11-11T13:34:45Z</time>
      </trkpt>
      <trkpt lat="47.60278" lon="-3.10943">
        <ele>20</ele>
        <time>2023-11-11T13:36:18Z</time>
      </trkpt>
      <trkpt lat="47.60323" lon="-3.1109">
        <ele>20</ele>
        <time>2023-11-11T13:38:43Z</time>
      </trkpt>
      <trkpt lat="47.603" lon="-3.11161">
        <ele>20</ele>
        <time>2023-11-11T13:39:54Z</time>
      </trkpt>
      <trkpt lat="47.60382" lon="-3.11307">
        <ele>21</ele>
        <time>2023-11-11T13:42:45Z</time>
      </trkpt>
      <trkpt lat="47.60408" lon="-3.1163">
        <ele>25</ele>
        <time>2023-11-11T13:47:38Z</time>
      </trkpt>
      <trkpt lat="47.60401" lon="-3.11769">
        <ele>25</ele>
        <time>2023-11-11T13:49:43Z</time>
      </trkpt>
      <trkpt lat="47.60352" lon="-3.11845">
        <ele>23</ele>
        <time>2023-11-11T13:51:18Z</time>
      </trkpt>
      <trkpt lat="47.60401" lon="-3.11878">
        <ele>21</ele>
        <time>2023-11-11T13:52:30Z</time>
      </trkpt>
    </trkseg>
  </trk>
</gpx>